createdAt,value
2023-04-03T00:01:13.480Z,11.48
2023-04-03T00:03:45.386Z,12.32
2023-04-03T00:06:16.976Z,12.35
2023-04-03T00:08:50.742Z,12.98
2023-04-03T00:11:23.074Z,12.27
2023-04-03T00:13:54.313Z,13.98
2023-04-03T00:16:25.573Z,11.85
2023-04-03T00:18:56.535Z,10.60
2023-04-03T00:21:27.418Z,12.65
2023-04-03T00:24:01.214Z,13.35
2023-04-03T00:26:32.088Z,10.50
2023-04-03T00:29:02.979Z,12.63
2023-04-03T00:31:33.838Z,14.82
2023-04-03T00:34:04.816Z,9.85
2023-04-03T00:36:35.853Z,12.30
2023-04-03T00:39:09.524Z,8.90
2023-04-03T00:41:40.459Z,8.88
2023-04-03T00:44:27.225Z,11.40
2023-04-03T00:46:58.149Z,12.65
2023-04-03T00:49:30.974Z,10.38
2023-04-03T00:52:03.122Z,11.45
2023-04-03T00:54:36.854Z,12.55
2023-04-03T00:57:09.945Z,14.35
2023-04-03T00:59:45.445Z,17.75
2023-04-03T01:02:16.447Z,15.15
2023-04-03T01:04:48.552Z,12.52
2023-04-03T01:07:22.568Z,11.20
2023-04-03T01:10:00.503Z,14.77
2023-04-03T01:12:33.981Z,11.27
2023-04-03T01:15:07.158Z,11.68
2023-04-03T01:17:41.026Z,14.88
2023-04-03T01:20:47.020Z,13.68
2023-04-03T01:23:37.037Z,10.05
2023-04-03T01:26:11.508Z,9.70
2023-04-03T01:28:42.473Z,13.50
2023-04-03T01:31:23.343Z,15.60
2023-04-03T01:33:57.269Z,13.05
2023-04-03T01:36:32.196Z,12.95
2023-04-03T01:42:07.073Z,13.75
2023-04-03T01:44:43.110Z,11.70
2023-04-03T01:47:13.996Z,16.67
2023-04-03T01:49:48.318Z,16.10
2023-04-03T01:52:19.142Z,10.60
2023-04-03T01:54:49.986Z,14.82
2023-04-03T01:57:20.870Z,16.73
2023-04-03T01:59:52.544Z,14.38
2023-04-03T02:02:23.596Z,8.38
2023-04-03T02:04:59.102Z,10.55
2023-04-03T02:07:29.917Z,13.02
2023-04-03T02:10:00.759Z,12.82
2023-04-03T02:12:31.621Z,8.73
2023-04-03T02:15:03.126Z,15.40
2023-04-03T02:17:34.102Z,13.88
2023-04-03T02:20:08.200Z,15.90
2023-04-03T02:22:39.244Z,10.55
2023-04-03T02:25:10.985Z,12.43
2023-04-03T02:27:41.769Z,16.20
2023-04-03T02:30:15.938Z,13.65
2023-04-03T02:32:46.872Z,7.47
2023-04-03T02:35:21.334Z,12.43
2023-04-03T02:37:53.058Z,18.27
2023-04-03T02:40:24.609Z,12.05
2023-04-03T02:42:55.537Z,11.68
2023-04-03T02:45:28.495Z,18.45
2023-04-03T02:47:59.404Z,17.30
2023-04-03T02:50:32.833Z,14.25
2023-04-03T02:53:03.653Z,8.77
2023-04-03T02:55:34.543Z,16.30
2023-04-03T02:58:06.184Z,15.00
2023-04-03T03:00:38.679Z,13.45
2023-04-03T03:03:09.828Z,18.27
2023-04-03T03:05:43.420Z,20.13
2023-04-03T03:08:14.206Z,14.07
2023-04-03T03:10:45.134Z,11.32
2023-04-03T03:13:15.969Z,13.00
2023-04-03T03:15:46.815Z,12.75
2023-04-03T03:18:18.339Z,10.27
2023-04-03T03:20:54.880Z,12.18
2023-04-03T03:23:27.561Z,15.43
2023-04-03T03:26:00.220Z,8.15
2023-04-03T03:28:31.481Z,12.00
2023-04-03T03:31:03.698Z,10.23
2023-04-03T03:33:36.776Z,7.70
2023-04-03T03:36:10.914Z,9.98
2023-04-03T03:38:41.888Z,13.25
2023-04-03T03:41:14.217Z,14.55
2023-04-03T03:43:48.102Z,11.15
2023-04-03T03:46:20.694Z,12.38
2023-04-03T03:48:51.589Z,11.98
2023-04-03T03:51:25.051Z,15.30
2023-04-03T03:53:56.342Z,11.25
2023-04-03T03:56:27.828Z,9.43
2023-04-03T03:58:58.773Z,13.18
2023-04-03T04:01:30.094Z,9.30
2023-04-03T04:04:01.220Z,14.82
2023-04-03T04:06:38.602Z,16.35
2023-04-03T04:09:13.941Z,14.77
2023-04-03T04:11:44.961Z,11.07
2023-04-03T04:14:17.021Z,13.88
2023-04-03T04:16:48.571Z,11.38
2023-04-03T04:19:24.436Z,11.07
2023-04-03T04:21:57.887Z,9.60
2023-04-03T04:24:29.275Z,12.85
2023-04-03T04:27:01.264Z,11.38
2023-04-03T04:29:36.532Z,14.07
2023-04-03T04:32:10.038Z,12.20
2023-04-03T04:34:41.170Z,12.38
2023-04-03T04:37:14.762Z,13.10
2023-04-03T04:39:45.704Z,10.30
2023-04-03T04:42:17.877Z,12.30
2023-04-03T04:44:50.691Z,14.18
2023-04-03T04:47:21.572Z,10.90
2023-04-03T04:49:52.529Z,11.60
2023-04-03T04:52:26.921Z,8.43
2023-04-03T04:54:58.179Z,13.05
2023-04-03T04:57:29.728Z,12.75
2023-04-03T05:00:04.365Z,8.05
2023-04-03T05:02:35.163Z,12.35
2023-04-03T05:05:06.462Z,8.65
2023-04-03T05:07:40.860Z,11.57
2023-04-03T05:10:13.104Z,13.13
2023-04-03T05:12:44.264Z,7.25
2023-04-03T05:15:15.007Z,10.57
2023-04-03T05:17:45.826Z,12.88
2023-04-03T05:20:18.241Z,10.00
2023-04-03T05:22:52.990Z,12.00
2023-04-03T05:25:23.413Z,8.75
2023-04-03T05:27:57.506Z,15.50
2023-04-03T05:30:29.076Z,9.75
2023-04-03T05:32:59.778Z,6.97
2023-04-03T05:35:42.724Z,12.55
2023-04-03T05:38:18.965Z,10.00
2023-04-03T05:40:49.535Z,10.48
2023-04-03T05:43:20.369Z,12.52
2023-04-03T05:45:52.367Z,12.98
2023-04-03T05:48:24.671Z,8.95
2023-04-03T05:50:56.888Z,12.00
2023-04-03T05:53:35.168Z,8.55
2023-04-03T05:56:07.848Z,9.18
2023-04-03T05:58:42.745Z,9.38
2023-04-03T06:01:13.547Z,13.75
2023-04-03T06:03:44.448Z,9.27
2023-04-03T06:06:17.823Z,9.65
2023-04-03T06:08:52.129Z,9.43
2023-04-03T06:11:22.800Z,10.10
2023-04-03T06:13:53.232Z,12.98
2023-04-03T06:16:23.655Z,7.15
2023-04-03T06:18:54.010Z,11.07
2023-04-03T06:21:24.517Z,9.35
2023-04-03T06:23:57.484Z,11.77
2023-04-03T06:26:28.487Z,8.13
2023-04-03T06:28:58.802Z,8.20
2023-04-03T06:31:29.289Z,9.15
2023-04-03T06:34:00.235Z,10.80
2023-04-03T06:36:31.093Z,9.65
2023-04-03T06:39:04.368Z,10.48
2023-04-03T06:41:36.032Z,7.90
2023-04-03T06:44:09.200Z,8.63
2023-04-03T06:46:39.703Z,7.95
2023-04-03T06:49:11.535Z,9.27
2023-04-03T06:51:42.066Z,8.20
2023-04-03T06:54:15.964Z,7.95
2023-04-03T06:56:46.464Z,10.32
2023-04-03T06:59:17.413Z,9.27
2023-04-03T07:01:48.669Z,11.13
2023-04-03T07:04:21.512Z,9.32
2023-04-03T07:06:52.199Z,12.25
2023-04-03T07:09:25.217Z,8.70
2023-04-03T07:11:55.608Z,7.07
2023-04-03T07:14:26.410Z,11.25
2023-04-03T07:16:56.827Z,8.65
2023-04-03T07:19:29.172Z,12.25
2023-04-03T07:21:59.520Z,8.00
2023-04-03T07:24:32.588Z,7.25
2023-04-03T07:27:03.731Z,8.18
2023-04-03T07:29:34.204Z,10.27
2023-04-03T07:32:04.932Z,8.85
2023-04-03T07:34:36.407Z,8.77
2023-04-03T07:37:07.727Z,8.20
2023-04-03T07:39:40.771Z,8.02
2023-04-03T07:42:11.338Z,10.05
2023-04-03T07:44:42.371Z,9.38
2023-04-03T07:47:14.676Z,10.35
2023-04-03T07:49:45.196Z,8.40
2023-04-03T07:52:15.890Z,8.20
2023-04-03T07:54:48.979Z,8.55
2023-04-03T07:57:19.525Z,10.48
2023-04-03T07:59:49.890Z,11.80
2023-04-03T08:02:20.208Z,10.02
2023-04-03T08:04:50.784Z,10.77
2023-04-03T08:07:22.071Z,10.40
2023-04-03T08:09:55.202Z,10.18
2023-04-03T08:12:25.794Z,11.00
2023-04-03T08:14:56.393Z,13.85
2023-04-03T08:17:26.825Z,10.20
2023-04-03T08:19:57.164Z,11.32
2023-04-03T08:22:27.638Z,14.43
2023-04-03T08:25:00.555Z,12.95
2023-04-03T08:27:31.266Z,13.52
2023-04-03T08:30:01.678Z,11.73
2023-04-03T08:32:32.118Z,12.32
2023-04-03T08:35:02.452Z,12.50
2023-04-03T08:37:33.066Z,12.90
2023-04-03T08:40:06.740Z,13.48
2023-04-03T08:42:48.866Z,13.32
2023-04-03T08:45:24.442Z,13.57
2023-04-03T08:48:03.655Z,14.00
2023-04-03T08:50:39.720Z,14.50
2023-04-03T08:53:16.160Z,12.33
2023-04-03T08:55:51.028Z,12.85
2023-04-03T08:58:25.345Z,14.27
2023-04-03T09:00:59.753Z,13.43
2023-04-03T09:03:33.676Z,15.35
2023-04-03T09:06:08.937Z,13.70
2023-04-03T09:08:44.866Z,14.43
2023-04-03T09:11:27.881Z,13.65
2023-04-03T09:14:04.139Z,13.60
2023-04-03T09:16:45.181Z,13.90
2023-04-03T09:19:23.658Z,12.98
2023-04-03T09:21:53.969Z,15.77
2023-04-03T09:24:27.026Z,12.43
2023-04-03T09:27:03.667Z,13.32
2023-04-03T09:29:34.605Z,14.15
2023-04-03T09:32:06.769Z,14.75
2023-04-03T09:34:40.609Z,14.40
2023-04-03T09:37:11.668Z,13.05
2023-04-03T09:39:54.661Z,14.70
2023-04-03T09:42:29.660Z,15.57
2023-04-03T09:45:01.358Z,15.20
2023-04-03T09:47:34.952Z,13.68
2023-04-03T09:50:24.419Z,14.05
2023-04-03T09:52:55.659Z,15.25
2023-04-03T09:55:28.496Z,17.20
2023-04-03T09:58:03.996Z,16.20
2023-04-03T10:00:39.313Z,13.52
2023-04-03T10:03:26.376Z,14.70
2023-04-03T10:05:56.707Z,14.02
2023-04-03T10:08:30.022Z,13.27
2023-04-03T10:11:24.327Z,14.25
2023-04-03T10:14:00.824Z,12.85
2023-04-03T10:16:39.053Z,11.68
2023-04-03T10:19:35.415Z,13.35
2023-04-03T10:22:15.718Z,12.05
2023-04-03T10:24:58.564Z,11.55
2023-04-03T10:27:51.789Z,13.40
2023-04-03T10:30:35.492Z,13.57
2023-04-03T10:33:29.002Z,13.00
2023-04-03T10:36:12.926Z,12.63
2023-04-03T10:38:52.280Z,12.82
2023-04-03T10:41:32.192Z,13.38
2023-04-03T10:44:15.262Z,11.90
2023-04-03T10:46:51.633Z,13.52
2023-04-03T10:49:32.786Z,12.43
2023-04-03T10:52:10.809Z,13.23
2023-04-03T10:54:43.489Z,12.98
2023-04-03T10:57:15.375Z,12.75
2023-04-03T10:59:49.841Z,12.10
2023-04-03T11:02:31.854Z,12.02
2023-04-03T11:05:10.463Z,13.40
2023-04-03T11:07:44.884Z,12.10
2023-04-03T11:10:20.643Z,11.65
2023-04-03T11:12:56.413Z,14.27
2023-04-03T11:15:28.483Z,11.95
2023-04-03T11:18:08.181Z,12.13
2023-04-03T11:20:41.104Z,10.50
2023-04-03T11:23:23.518Z,11.80
2023-04-03T11:25:57.112Z,10.93
2023-04-03T11:28:27.640Z,11.45
2023-04-03T11:31:06.831Z,10.38
2023-04-03T11:33:49.599Z,11.50
2023-04-03T11:36:33.147Z,12.20
2023-04-03T11:39:12.742Z,12.05
2023-04-03T11:41:43.085Z,11.25
2023-04-03T11:44:37.606Z,11.40
2023-04-03T11:47:09.316Z,10.35
2023-04-03T11:50:06.619Z,12.13
2023-04-03T11:53:02.267Z,11.85
2023-04-03T11:55:58.309Z,12.30
2023-04-03T11:58:31.116Z,9.80
2023-04-03T12:01:13.741Z,12.60
2023-04-03T12:04:09.961Z,10.30
2023-04-03T12:07:16.595Z,9.43
2023-04-03T12:10:31.737Z,9.40
2023-04-03T12:13:05.552Z,11.13
2023-04-03T12:16:01.051Z,10.00
2023-04-03T12:18:59.805Z,8.50
2023-04-03T12:22:00.576Z,8.95
2023-04-03T12:24:33.777Z,8.68
2023-04-03T12:27:35.434Z,8.48
2023-04-03T12:30:16.465Z,9.20
2023-04-03T12:33:13.243Z,10.82
2023-04-03T12:35:52.952Z,11.77
2023-04-03T12:38:45.563Z,9.55
2023-04-03T12:41:26.815Z,10.40
2023-04-03T12:44:21.268Z,8.73
2023-04-03T12:46:53.673Z,8.00
2023-04-03T12:49:39.758Z,9.27
2023-04-03T12:52:23.660Z,8.73
2023-04-03T12:54:55.029Z,8.75
2023-04-03T12:57:28.766Z,9.07
2023-04-03T13:00:02.016Z,9.63
2023-04-03T13:02:35.751Z,9.10
2023-04-03T13:05:11.459Z,9.63
2023-04-03T13:07:44.662Z,8.65
2023-04-03T13:10:20.005Z,9.32
2023-04-03T13:12:52.913Z,8.27
2023-04-03T13:15:28.730Z,8.38
2023-04-03T13:17:59.713Z,8.20
2023-04-03T13:20:32.864Z,9.43
2023-04-03T13:23:06.518Z,10.57
2023-04-03T13:25:40.333Z,8.63
2023-04-03T13:28:14.768Z,9.32
2023-04-03T13:31:02.966Z,8.15
2023-04-03T13:33:38.907Z,9.57
2023-04-03T13:36:14.905Z,9.05
2023-04-03T13:38:45.339Z,7.43
2023-04-03T13:41:30.383Z,9.00
2023-04-03T13:44:10.510Z,9.23
2023-04-03T13:46:45.608Z,9.00
2023-04-03T13:49:23.839Z,10.23
2023-04-03T13:52:06.068Z,8.00
2023-04-03T13:54:41.454Z,8.57
2023-04-03T13:57:18.429Z,10.45
2023-04-03T14:02:26.206Z,8.45
2023-04-03T14:05:02.389Z,8.15
2023-04-03T14:07:34.542Z,8.05
2023-04-03T14:10:04.918Z,7.30
2023-04-03T14:12:40.237Z,7.88
2023-04-03T14:15:20.878Z,9.65
2023-04-03T14:17:55.739Z,8.93
2023-04-03T14:20:29.905Z,11.00
2023-04-03T14:23:00.434Z,10.38
2023-04-03T14:25:30.878Z,8.13
2023-04-03T14:28:01.622Z,8.80
2023-04-03T14:30:34.489Z,9.55
2023-04-03T14:33:07.559Z,10.55
2023-04-03T14:35:38.019Z,9.52
2023-04-03T14:38:16.391Z,8.23
2023-04-03T14:40:46.765Z,10.60
2023-04-03T14:43:17.560Z,7.80
2023-04-03T14:45:48.161Z,7.90
2023-04-03T14:48:24.928Z,10.07
2023-04-03T14:51:05.119Z,9.32
2023-04-03T14:53:39.113Z,9.98
2023-04-03T14:56:15.826Z,8.70
2023-04-03T14:58:50.459Z,9.25
2023-04-03T15:01:22.508Z,9.57
2023-04-03T15:03:55.661Z,9.77
2023-04-03T15:06:26.246Z,9.18
2023-04-03T15:08:56.722Z,7.55
2023-04-03T15:11:27.904Z,6.82
2023-04-03T15:13:58.667Z,8.80
2023-04-03T15:16:29.634Z,7.47
2023-04-03T15:19:02.854Z,6.95
2023-04-03T15:21:33.272Z,8.27
2023-04-03T15:24:03.652Z,7.90
2023-04-03T15:26:34.670Z,7.07
2023-04-03T15:29:05.120Z,8.80
2023-04-03T15:31:35.670Z,8.20
2023-04-03T15:34:08.759Z,6.07
2023-04-03T15:36:39.187Z,6.43
2023-04-03T15:39:10.004Z,5.35
2023-04-03T15:41:41.194Z,6.90
2023-04-03T15:44:13.321Z,6.13
2023-04-03T15:46:43.707Z,6.68
2023-04-03T15:49:16.866Z,6.28
2023-04-03T15:51:47.264Z,5.03
2023-04-03T15:54:17.658Z,6.82
2023-04-03T15:56:48.256Z,5.45
2023-04-03T15:59:18.775Z,5.80
2023-04-03T16:01:49.471Z,6.35
2023-04-03T16:04:23.577Z,5.93
2023-04-03T16:06:54.633Z,6.78
2023-04-03T16:09:24.983Z,7.28
2023-04-03T16:11:55.294Z,6.20
2023-04-03T16:14:25.601Z,6.05
2023-04-03T16:16:55.991Z,6.18
2023-04-03T16:19:29.100Z,6.30
2023-04-03T16:21:59.811Z,7.05
2023-04-03T16:24:30.205Z,7.80
2023-04-03T16:27:00.574Z,6.97
2023-04-03T16:29:30.936Z,5.70
2023-04-03T16:32:02.366Z,6.32
2023-04-03T16:34:35.393Z,5.60
2023-04-03T16:37:05.894Z,6.70
2023-04-03T16:39:36.333Z,6.30
2023-04-03T16:42:06.794Z,5.53
2023-04-03T16:44:37.194Z,7.03
2023-04-03T16:47:08.909Z,6.18
2023-04-03T16:49:42.114Z,6.78
2023-04-03T16:52:12.627Z,6.63
2023-04-03T16:54:43.226Z,6.63
2023-04-03T16:57:13.537Z,5.80
2023-04-03T16:59:43.848Z,5.88
2023-04-03T17:02:14.146Z,8.40
2023-04-03T17:04:47.057Z,7.30
2023-04-03T17:07:17.314Z,7.15
2023-04-03T17:09:47.638Z,6.28
2023-04-03T17:12:18.129Z,5.78
2023-04-03T17:14:48.499Z,6.05
2023-04-03T17:17:19.439Z,7.53
2023-04-03T17:19:54.186Z,10.23
2023-04-03T17:22:24.538Z,6.35
2023-04-03T17:24:54.914Z,9.32
2023-04-03T17:27:25.584Z,7.47
2023-04-03T17:29:56.546Z,8.00
2023-04-03T17:32:27.522Z,7.93
2023-04-03T17:35:00.533Z,8.77
2023-04-03T17:37:30.825Z,8.75
2023-04-03T17:40:01.316Z,9.40
2023-04-03T17:42:32.681Z,9.65
2023-04-03T17:45:03.491Z,8.07
2023-04-03T17:47:33.821Z,10.38
2023-04-03T17:50:07.473Z,9.02
2023-04-03T17:52:37.921Z,11.82
2023-04-03T17:55:09.232Z,11.27
2023-04-03T17:57:39.562Z,9.63
2023-04-03T18:00:11.836Z,10.93
2023-04-03T18:02:44.989Z,10.40
2023-04-03T18:05:18.081Z,11.35
2023-04-03T18:07:49.669Z,13.13
2023-04-03T18:10:20.097Z,10.10
2023-04-03T18:12:50.500Z,11.27
2023-04-03T18:15:21.112Z,12.23
2023-04-03T18:17:56.773Z,13.43
2023-04-03T18:20:29.900Z,11.70
2023-04-03T18:23:00.233Z,11.63
2023-04-03T18:25:30.763Z,11.18
2023-04-03T18:28:06.463Z,12.50
2023-04-03T18:30:39.946Z,13.02
2023-04-03T18:33:10.570Z,14.85
2023-04-03T18:35:43.883Z,11.68
2023-04-03T18:38:14.678Z,11.98
2023-04-03T18:40:47.543Z,13.27
2023-04-03T18:43:18.079Z,12.13
2023-04-03T18:45:49.992Z,12.13
2023-04-03T18:48:21.450Z,13.10
2023-04-03T18:50:55.715Z,15.23
2023-04-03T18:53:26.130Z,13.40
2023-04-03T18:55:56.597Z,11.65
2023-04-03T18:58:26.854Z,13.50
2023-04-03T19:00:57.275Z,12.05
2023-04-03T19:03:27.797Z,12.82
2023-04-03T19:06:00.939Z,13.30
2023-04-03T19:08:31.451Z,13.85
2023-04-03T19:11:01.849Z,13.30
2023-04-03T19:13:32.758Z,15.68
2023-04-03T19:16:03.326Z,14.93
2023-04-03T19:18:33.658Z,14.10
2023-04-03T19:21:07.039Z,12.13
2023-04-03T19:23:37.470Z,14.75
2023-04-03T19:26:11.304Z,15.40
2023-04-03T19:28:42.546Z,14.93
2023-04-03T19:31:17.206Z,14.82
2023-04-03T19:33:48.717Z,15.70
2023-04-03T19:36:22.535Z,18.67
2023-04-03T19:38:53.430Z,14.18
2023-04-03T19:41:27.621Z,16.63
2023-04-03T19:43:59.189Z,16.73
2023-04-03T19:46:32.154Z,17.42
2023-04-03T19:49:03.157Z,16.25
2023-04-03T19:51:36.609Z,15.60
2023-04-03T19:54:07.582Z,18.85
2023-04-03T19:56:38.421Z,18.20
2023-04-03T19:59:09.335Z,16.77
2023-04-03T20:01:40.781Z,18.55
2023-04-03T20:04:12.037Z,19.73
2023-04-03T20:06:45.546Z,17.55
2023-04-03T20:09:18.478Z,16.00
2023-04-03T20:11:51.467Z,17.13
2023-04-03T20:14:24.283Z,16.75
2023-04-03T20:16:55.223Z,19.13
2023-04-03T20:19:29.314Z,19.88
2023-04-03T20:22:03.593Z,18.25
2023-04-03T20:24:34.880Z,19.15
2023-04-03T20:27:05.872Z,16.38
2023-04-03T20:29:39.770Z,20.50
2023-04-03T20:32:12.259Z,17.10
2023-04-03T20:34:44.318Z,15.98
2023-04-03T20:37:20.375Z,16.77
2023-04-03T20:39:51.390Z,18.70
2023-04-03T20:42:22.206Z,17.85
2023-04-03T20:44:53.070Z,15.48
2023-04-03T20:47:24.288Z,18.05
2023-04-03T20:49:56.020Z,17.38
2023-04-03T20:52:29.449Z,15.90
2023-04-03T20:55:00.553Z,16.92
2023-04-03T20:57:32.009Z,17.00
2023-04-03T21:00:04.875Z,17.25
2023-04-03T21:02:36.325Z,18.00
2023-04-03T21:05:07.958Z,20.13
2023-04-03T21:08:10.100Z,21.45
2023-04-03T21:11:11.188Z,18.88
2023-04-03T21:14:12.987Z,17.38
2023-04-03T21:16:43.218Z,21.10
2023-04-03T21:19:17.070Z,18.35
2023-04-03T21:21:49.356Z,16.65
2023-04-03T21:24:21.045Z,17.10
2023-04-03T21:26:52.920Z,16.15
2023-04-03T21:29:23.855Z,18.50
2023-04-03T21:31:57.234Z,19.90
2023-04-03T21:34:32.321Z,17.67
2023-04-03T21:37:05.968Z,17.35
2023-04-03T21:39:37.470Z,16.52
2023-04-03T21:42:08.307Z,15.32
2023-04-03T21:44:39.129Z,15.75
2023-04-03T21:47:09.977Z,16.52
2023-04-03T21:49:43.692Z,16.95
2023-04-03T21:52:14.598Z,16.65
2023-04-03T21:54:45.460Z,14.82
2023-04-03T21:57:16.878Z,15.27
2023-04-03T21:59:47.427Z,14.90
2023-04-03T22:02:18.285Z,14.68
2023-04-03T22:04:52.220Z,14.68
2023-04-03T22:07:23.093Z,14.38
2023-04-03T22:09:53.964Z,16.55
2023-04-03T22:12:24.777Z,15.13
2023-04-03T22:14:55.870Z,16.33
2023-04-03T22:17:26.883Z,14.43
2023-04-03T22:20:00.375Z,13.88
2023-04-03T22:22:31.183Z,13.15
2023-04-03T22:25:02.188Z,13.00
2023-04-03T22:27:33.331Z,14.45
2023-04-03T22:30:04.755Z,14.02
2023-04-03T22:32:35.639Z,15.38
2023-04-03T22:35:10.287Z,15.27
2023-04-03T22:37:42.102Z,12.75
2023-04-03T22:40:14.162Z,13.25
2023-04-03T22:42:46.277Z,14.38
2023-04-03T22:45:17.252Z,14.00
2023-04-03T22:47:48.035Z,13.55
2023-04-03T22:50:21.468Z,11.75
2023-04-03T22:52:52.251Z,13.00
2023-04-03T22:55:24.791Z,13.13
2023-04-03T22:57:55.639Z,14.60
2023-04-03T23:00:28.135Z,11.23
2023-04-03T23:02:58.981Z,13.18
2023-04-03T23:05:32.745Z,10.10
2023-04-03T23:08:03.540Z,12.32
2023-04-03T23:10:34.331Z,10.80
2023-04-03T23:13:05.207Z,10.77
2023-04-03T23:15:36.114Z,11.35
2023-04-03T23:18:07.276Z,10.88
2023-04-03T23:20:40.992Z,10.82
2023-04-03T23:23:12.365Z,9.48
2023-04-03T23:25:43.201Z,9.52
2023-04-03T23:28:14.069Z,11.35
2023-04-03T23:30:45.851Z,10.80
2023-04-03T23:33:16.939Z,9.20
2023-04-03T23:35:52.367Z,9.07
2023-04-03T23:38:23.406Z,10.40
2023-04-03T23:40:54.314Z,8.95
2023-04-03T23:43:25.100Z,9.48
2023-04-03T23:45:56.277Z,9.55
2023-04-03T23:48:27.137Z,8.55
2023-04-03T23:51:00.503Z,8.13
2023-04-03T23:53:31.407Z,8.55
2023-04-03T23:56:02.465Z,7.40
2023-04-03T23:58:33.319Z,7.85
